createdAt,value
2018-09-01T00:00:18.357Z,12.06
2018-09-01T00:01:18.933Z,12.04
2018-09-01T00:02:19.488Z,11.95
2018-09-01T00:03:20.030Z,12.00
2018-09-01T00:04:20.581Z,11.88
2018-09-01T00:05:21.128Z,11.93
2018-09-01T00:06:21.676Z,12.01
2018-09-01T00:07:22.271Z,12.03
2018-09-01T00:08:22.780Z,12.06
2018-09-01T00:09:23.332Z,12.00
2018-09-01T00:10:23.884Z,12.04
2018-09-01T00:11:24.436Z,11.95
2018-09-01T00:12:24.987Z,11.88
2018-09-01T00:13:25.539Z,11.91
2018-09-01T00:14:26.093Z,11.91
2018-09-01T00:15:26.633Z,11.88
2018-09-01T00:16:27.191Z,11.93
2018-09-01T00:17:27.740Z,11.91
2018-09-01T00:18:28.287Z,11.90
2018-09-01T00:19:28.838Z,11.88
2018-09-01T00:20:29.389Z,11.85
2018-09-01T00:21:29.939Z,11.84
2018-09-01T00:22:30.487Z,11.87
2018-09-01T00:23:31.038Z,11.88
2018-09-01T00:24:31.599Z,11.90
2018-09-01T00:25:32.139Z,11.81
2018-09-01T00:26:32.690Z,11.73
2018-09-01T00:27:33.245Z,11.70
2018-09-01T00:28:33.795Z,11.69
2018-09-01T00:29:34.348Z,11.65
2018-09-01T00:30:34.921Z,11.67
2018-09-01T00:31:35.469Z,11.77
2018-09-01T00:32:35.998Z,11.75
2018-09-01T00:33:36.543Z,11.87
2018-09-01T00:34:37.094Z,11.85
2018-09-01T00:35:37.647Z,11.81
2018-09-01T00:36:38.201Z,11.81
2018-09-01T00:37:38.755Z,11.70
2018-09-01T00:38:39.305Z,11.75
2018-09-01T00:39:39.855Z,11.80
2018-09-01T00:40:40.409Z,11.76
2018-09-01T00:41:40.977Z,11.76
2018-09-01T00:42:41.509Z,11.81
2018-09-01T00:43:42.062Z,11.70
2018-09-01T00:44:42.604Z,11.67
2018-09-01T00:45:43.155Z,11.70
2018-09-01T00:46:43.707Z,11.66
2018-09-01T00:47:44.257Z,11.69
2018-09-01T00:48:44.795Z,11.66
2018-09-01T00:49:45.359Z,11.58
2018-09-01T00:50:45.889Z,11.59
2018-09-01T00:51:46.441Z,11.51
2018-09-01T00:52:46.989Z,11.63
2018-09-01T00:53:47.541Z,11.51
2018-09-01T00:54:48.096Z,11.52
2018-09-01T00:55:48.652Z,11.52
2018-09-01T00:56:49.202Z,11.50
2018-09-01T00:57:49.757Z,11.42
2018-09-01T00:58:50.300Z,11.29
2018-09-01T00:59:50.853Z,11.39
2018-09-01T01:00:51.413Z,11.27
2018-09-01T01:01:51.948Z,11.22
2018-09-01T01:02:52.500Z,11.16
2018-09-01T01:03:53.054Z,11.24
2018-09-01T01:04:53.599Z,11.19
2018-09-01T01:05:54.145Z,11.22
2018-09-01T01:06:54.699Z,11.15
2018-09-01T01:07:55.244Z,11.11
2018-09-01T01:08:55.802Z,11.00
2018-09-01T01:09:56.345Z,10.97
2018-09-01T01:10:56.895Z,10.94
2018-09-01T01:11:57.443Z,10.96
2018-09-01T01:12:57.989Z,10.85
2018-09-01T01:13:58.540Z,10.82
2018-09-01T01:14:59.083Z,10.83
2018-09-01T01:15:59.629Z,10.85
2018-09-01T01:17:00.175Z,10.90
2018-09-01T01:18:00.719Z,10.85
2018-09-01T01:19:01.271Z,10.74
2018-09-01T01:20:01.813Z,10.79
2018-09-01T01:21:02.365Z,10.78
2018-09-01T01:22:02.922Z,10.83
2018-09-01T01:23:03.466Z,10.75
2018-09-01T01:24:04.009Z,10.71
2018-09-01T01:25:04.572Z,10.69
2018-09-01T01:26:05.122Z,10.66
2018-09-01T01:27:05.659Z,10.63
2018-09-01T01:28:06.209Z,10.54
2018-09-01T01:29:06.761Z,10.54
2018-09-01T01:30:07.321Z,10.51
2018-09-01T01:31:07.857Z,10.56
2018-09-01T01:32:08.411Z,10.49
2018-09-01T01:33:08.961Z,10.57
2018-09-01T01:34:09.520Z,10.54
2018-09-01T01:35:10.064Z,10.51
2018-09-01T01:36:10.612Z,10.47
2018-09-01T01:37:11.164Z,10.58
2018-09-01T01:38:11.737Z,10.51
2018-09-01T01:39:12.270Z,10.51
2018-09-01T01:40:12.817Z,10.49
2018-09-01T01:41:13.368Z,10.53
2018-09-01T01:42:13.921Z,10.53
2018-09-01T01:43:14.471Z,10.56
2018-09-01T01:44:15.021Z,10.53
2018-09-01T01:45:15.572Z,10.54
2018-09-01T01:46:16.130Z,10.53
2018-09-01T01:47:16.671Z,10.64
2018-09-01T01:48:17.214Z,10.49
2018-09-01T01:49:17.766Z,10.51
2018-09-01T01:50:18.317Z,10.53
2018-09-01T01:51:18.867Z,10.42
2018-09-01T01:52:19.419Z,10.38
2018-09-01T01:53:19.972Z,10.45
2018-09-01T01:54:20.514Z,10.39
2018-09-01T01:55:21.061Z,10.29
2018-09-01T01:56:21.611Z,10.34
2018-09-01T01:57:22.154Z,10.35
2018-09-01T01:58:22.703Z,10.31
2018-09-01T01:59:23.257Z,10.37
2018-09-01T02:00:23.799Z,10.27
2018-09-01T02:01:24.352Z,10.31
2018-09-01T02:02:24.900Z,10.34
2018-09-01T02:03:25.446Z,10.20
2018-09-01T02:04:25.988Z,10.31
2018-09-01T02:05:26.541Z,10.23
2018-09-01T02:06:27.096Z,10.24
2018-09-01T02:07:27.645Z,10.34
2018-09-01T02:08:28.199Z,10.17
2018-09-01T02:09:28.749Z,10.20
2018-09-01T02:10:29.297Z,10.34
2018-09-01T02:11:29.844Z,10.34
2018-09-01T02:12:30.395Z,10.19
2018-09-01T02:13:30.941Z,10.22
2018-09-01T02:14:31.488Z,10.22
2018-09-01T02:15:32.030Z,10.20
2018-09-01T02:16:32.578Z,10.26
2018-09-01T02:17:33.127Z,10.19
2018-09-01T02:18:33.671Z,10.24
2018-09-01T02:19:34.224Z,10.17
2018-09-01T02:20:34.773Z,10.20
2018-09-01T02:21:35.326Z,10.16
2018-09-01T02:22:35.880Z,10.14
2018-09-01T02:23:36.426Z,10.14
2018-09-01T02:24:36.978Z,10.22
2018-09-01T02:25:37.534Z,10.19
2018-09-01T02:26:38.084Z,10.19
2018-09-01T02:27:38.639Z,10.20
2018-09-01T02:28:39.188Z,10.17
2018-09-01T02:29:39.739Z,10.17
2018-09-01T02:30:40.294Z,10.06
2018-09-01T02:31:40.856Z,10.06
2018-09-01T02:32:41.391Z,10.01
2018-09-01T02:33:41.943Z,10.13
2018-09-01T02:34:42.493Z,9.99
2018-09-01T02:35:43.035Z,10.01
2018-09-01T02:36:43.584Z,10.04
2018-09-01T02:37:44.132Z,10.04
2018-09-01T02:38:44.674Z,10.13
2018-09-01T02:39:45.223Z,10.02
2018-09-01T02:40:45.772Z,10.05
2018-09-01T02:41:46.323Z,9.90
2018-09-01T02:42:46.871Z,9.88
2018-09-01T02:43:47.425Z,9.95
2018-09-01T02:44:47.971Z,9.96
2018-09-01T02:45:48.519Z,9.96
2018-09-01T02:46:49.069Z,9.95
2018-09-01T02:47:49.609Z,9.95
2018-09-01T02:48:50.161Z,9.90
2018-09-01T02:49:50.708Z,9.83
2018-09-01T02:50:51.250Z,9.81
2018-09-01T02:51:51.800Z,9.90
2018-09-01T02:52:52.342Z,9.94
2018-09-01T02:53:52.891Z,9.87
2018-09-01T02:54:53.437Z,9.94
2018-09-01T02:55:53.984Z,9.80
2018-09-01T02:56:54.534Z,9.84
2018-09-01T02:57:55.083Z,9.77
2018-09-01T02:58:55.632Z,9.77
2018-09-01T02:59:56.214Z,9.81
2018-09-01T03:00:56.728Z,9.87
2018-09-01T03:01:57.281Z,9.79
2018-09-01T03:02:57.826Z,9.80
2018-09-01T03:03:58.371Z,9.83
2018-09-01T03:04:58.926Z,9.80
2018-09-01T03:05:59.479Z,9.80
2018-09-01T03:07:00.025Z,9.74
2018-09-01T03:08:00.570Z,9.74
2018-09-01T03:09:01.119Z,9.77
2018-09-01T03:10:01.687Z,9.69
2018-09-01T03:11:02.219Z,9.74
2018-09-01T03:12:02.771Z,9.65
2018-09-01T03:13:03.321Z,9.62
2018-09-01T03:14:03.873Z,9.66
2018-09-01T03:15:04.426Z,9.69
2018-09-01T03:16:04.974Z,9.59
2018-09-01T03:17:05.521Z,9.61
2018-09-01T03:18:06.064Z,9.62
2018-09-01T03:19:06.613Z,9.61
2018-09-01T03:20:07.157Z,9.68
2018-09-01T03:21:07.706Z,9.62
2018-09-01T03:22:08.248Z,9.65
2018-09-01T03:23:08.797Z,9.59
2018-09-01T03:24:09.339Z,9.59
2018-09-01T03:25:09.879Z,9.66
2018-09-01T03:26:10.424Z,9.56
2018-09-01T03:27:10.966Z,9.58
2018-09-01T03:28:11.515Z,9.51
2018-09-01T03:29:12.070Z,9.63
2018-09-01T03:30:12.618Z,9.51
2018-09-01T03:31:13.165Z,9.53
2018-09-01T03:32:13.708Z,9.53
2018-09-01T03:33:14.258Z,9.47
2018-09-01T03:34:14.813Z,9.48
2018-09-01T03:35:15.350Z,9.44
2018-09-01T03:36:15.902Z,9.32
2018-09-01T03:37:16.451Z,9.30
2018-09-01T03:38:17.003Z,9.33
2018-09-01T03:39:17.552Z,9.32
2018-09-01T03:40:18.104Z,9.35
2018-09-01T03:41:18.657Z,9.30
2018-09-01T03:42:19.202Z,9.29
2018-09-01T03:43:19.746Z,9.30
2018-09-01T03:44:20.293Z,9.29
2018-09-01T03:45:20.850Z,9.26
2018-09-01T03:46:21.398Z,9.26
2018-09-01T03:47:21.941Z,9.22
2018-09-01T03:48:22.498Z,9.22
2018-09-01T03:49:23.053Z,9.22
2018-09-01T03:50:23.596Z,9.23
2018-09-01T03:51:24.149Z,9.22
2018-09-01T03:52:24.697Z,9.12
2018-09-01T03:53:25.247Z,9.11
2018-09-01T03:54:25.788Z,9.12
2018-09-01T03:55:26.337Z,9.06
2018-09-01T03:56:26.886Z,9.11
2018-09-01T03:57:27.436Z,9.00
2018-09-01T03:58:27.989Z,8.95
2018-09-01T03:59:28.539Z,8.92
2018-09-01T04:00:29.087Z,8.92
2018-09-01T04:01:29.637Z,8.98
2018-09-01T04:02:30.191Z,8.96
2018-09-01T04:03:30.741Z,8.93
2018-09-01T04:04:31.286Z,8.93
2018-09-01T04:05:31.832Z,8.96
2018-09-01T04:06:32.381Z,8.88
2018-09-01T04:07:32.932Z,8.93
2018-09-01T04:08:33.483Z,8.89
2018-09-01T04:09:34.029Z,8.92
2018-09-01T04:10:34.581Z,8.81
2018-09-01T04:11:35.139Z,8.82
2018-09-01T04:12:35.680Z,8.84
2018-09-01T04:13:36.232Z,8.88
2018-09-01T04:14:36.780Z,8.77
2018-09-01T04:15:37.329Z,8.81
2018-09-01T04:16:37.878Z,8.85
2018-09-01T04:17:38.425Z,8.86
2018-09-01T04:18:38.980Z,8.78
2018-09-01T04:19:39.525Z,8.82
2018-09-01T04:20:40.066Z,8.76
2018-09-01T04:21:40.605Z,8.74
2018-09-01T04:22:41.168Z,8.76
2018-09-01T04:23:41.700Z,8.76
2018-09-01T04:24:42.254Z,8.78
2018-09-01T04:25:42.792Z,8.71
2018-09-01T04:26:43.337Z,8.78
2018-09-01T04:27:43.886Z,8.76
2018-09-01T04:28:44.444Z,8.71
2018-09-01T04:29:44.989Z,8.67
2018-09-01T04:30:45.540Z,8.67
2018-09-01T04:31:46.090Z,8.64
2018-09-01T04:32:46.638Z,8.73
2018-09-01T04:33:47.189Z,8.73
2018-09-01T04:34:47.734Z,8.64
2018-09-01T04:35:48.279Z,8.64
2018-09-01T04:36:48.837Z,8.71
2018-09-01T04:37:49.387Z,8.70
2018-09-01T04:38:49.927Z,8.70
2018-09-01T04:39:50.483Z,8.64
2018-09-01T04:40:51.032Z,8.66
2018-09-01T04:41:51.634Z,8.67
2018-09-01T04:42:52.187Z,8.56
2018-09-01T04:43:52.751Z,8.53
2018-09-01T04:44:53.294Z,8.49
2018-09-01T04:45:53.844Z,8.48
2018-09-01T04:46:54.406Z,8.49
2018-09-01T04:47:54.933Z,8.50
2018-09-01T04:48:55.483Z,8.48
2018-09-01T04:49:56.037Z,8.50
2018-09-01T04:50:56.581Z,8.48
2018-09-01T04:51:57.129Z,8.48
2018-09-01T04:52:57.681Z,8.50
2018-09-01T04:53:58.249Z,8.64
2018-09-01T04:54:58.788Z,8.58
2018-09-01T04:55:59.342Z,8.55
2018-09-01T04:56:59.891Z,8.56
2018-09-01T04:58:00.442Z,8.60
2018-09-01T04:59:00.987Z,8.56
2018-09-01T05:00:01.534Z,8.56
2018-09-01T05:01:02.166Z,8.56
2018-09-01T05:02:02.635Z,8.67
2018-09-01T05:03:03.178Z,8.63
2018-09-01T05:04:03.731Z,8.70
2018-09-01T05:05:04.288Z,8.78
2018-09-01T05:06:04.839Z,8.78
2018-09-01T05:07:05.394Z,8.76
2018-09-01T05:08:05.947Z,8.81
2018-09-01T05:09:06.498Z,8.78
2018-09-01T05:10:07.043Z,8.93
2018-09-01T05:11:07.593Z,8.92
2018-09-01T05:12:08.143Z,9.00
2018-09-01T05:13:08.698Z,8.96
2018-09-01T05:14:09.258Z,8.95
2018-09-01T05:15:09.806Z,8.92
2018-09-01T05:16:10.354Z,9.10
2018-09-01T05:17:10.909Z,9.14
2018-09-01T05:18:11.461Z,9.25
2018-09-01T05:19:12.017Z,9.29
2018-09-01T05:20:12.565Z,9.45
2018-09-01T05:21:13.119Z,9.58
2018-09-01T05:22:13.675Z,9.66
2018-09-01T05:23:14.228Z,9.76
2018-09-01T05:24:14.788Z,9.90
2018-09-01T05:25:15.335Z,9.94
2018-09-01T05:26:15.892Z,10.01
2018-09-01T05:27:16.445Z,10.16
2018-09-01T05:28:16.995Z,10.16
2018-09-01T05:29:17.549Z,10.14
2018-09-01T05:30:18.096Z,10.32
2018-09-01T05:31:18.653Z,10.47
2018-09-01T05:32:19.208Z,10.87
2018-09-01T05:33:19.766Z,11.03
2018-09-01T05:34:20.317Z,11.27
2018-09-01T05:35:20.884Z,11.45
2018-09-01T05:36:21.434Z,11.48
2018-09-01T05:37:21.990Z,11.58
2018-09-01T05:38:22.549Z,11.91
2018-09-01T05:39:23.106Z,12.35
2018-09-01T05:40:23.664Z,12.79
2018-09-01T05:41:24.222Z,13.18
2018-09-01T05:42:24.782Z,13.52
2018-09-01T05:43:25.340Z,13.72
2018-09-01T05:44:25.901Z,13.87
2018-09-01T05:45:26.456Z,13.92
2018-09-01T05:46:27.011Z,13.90
2018-09-01T05:47:27.570Z,14.02
2018-09-01T05:48:28.135Z,14.12
2018-09-01T05:49:28.688Z,14.15
2018-09-01T05:50:29.251Z,14.15
2018-09-01T05:51:29.815Z,14.21
2018-09-01T05:52:30.375Z,14.39
2018-09-01T05:53:30.935Z,14.63
2018-09-01T05:54:31.496Z,15.06
2018-09-01T05:55:32.060Z,15.25
2018-09-01T05:56:32.621Z,15.43
2018-09-01T05:57:33.180Z,15.67
2018-09-01T05:58:33.735Z,15.89
2018-09-01T05:59:34.299Z,16.15
2018-09-01T06:00:34.877Z,16.45
2018-09-01T06:01:35.416Z,16.63
2018-09-01T06:02:35.976Z,16.86
2018-09-01T06:03:36.536Z,17.00
2018-09-01T06:04:37.097Z,17.24
2018-09-01T06:05:37.662Z,17.36
2018-09-01T06:06:38.222Z,17.45
2018-09-01T06:07:38.786Z,17.31
2018-09-01T06:08:39.352Z,17.06
2018-09-01T06:09:39.911Z,16.91
2018-09-01T06:10:40.476Z,16.83
2018-09-01T06:11:41.034Z,16.98
2018-09-01T06:12:41.601Z,16.94
2018-09-01T06:13:42.166Z,16.97
2018-09-01T06:14:42.723Z,16.78
2018-09-01T06:15:43.290Z,16.54
2018-09-01T06:16:43.850Z,16.66
2018-09-01T06:17:44.511Z,16.73
2018-09-01T06:18:44.971Z,16.91
2018-09-01T06:19:45.535Z,16.96
2018-09-01T06:20:46.096Z,17.16
2018-09-01T06:21:46.662Z,17.01
2018-09-01T06:22:47.226Z,17.09
2018-09-01T06:23:47.833Z,17.36
2018-09-01T06:24:48.377Z,17.18
2018-09-01T06:25:48.915Z,17.12
2018-09-01T06:26:49.475Z,17.19
2018-09-01T06:27:50.040Z,17.41
2018-09-01T06:28:50.604Z,17.64
2018-09-01T06:29:51.171Z,18.11
2018-09-01T06:30:51.735Z,18.44
2018-09-01T06:31:52.300Z,18.58
2018-09-01T06:32:52.934Z,18.65
2018-09-01T06:33:53.422Z,18.80
2018-09-01T06:34:53.989Z,19.06
2018-09-01T06:35:54.557Z,19.39
2018-09-01T06:36:55.124Z,19.52
2018-09-01T06:37:55.684Z,19.85
2018-09-01T06:38:56.255Z,20.26
2018-09-01T06:39:56.823Z,20.10
2018-09-01T06:40:57.391Z,20.21
2018-09-01T06:41:57.950Z,20.28
2018-09-01T06:42:58.567Z,20.32
2018-09-01T06:43:59.085Z,20.16
2018-09-01T06:44:59.644Z,20.22
2018-09-01T06:46:00.214Z,20.40
2018-09-01T06:47:00.775Z,20.48
2018-09-01T06:48:01.345Z,20.42
2018-09-01T06:49:01.915Z,20.65
2018-09-01T06:50:02.481Z,20.80
2018-09-01T06:51:03.058Z,21.22
2018-09-01T06:52:03.625Z,21.18
2018-09-01T06:53:04.196Z,21.39
2018-09-01T06:54:04.752Z,21.54
2018-09-01T06:55:05.316Z,21.49
2018-09-01T06:56:05.881Z,21.52
2018-09-01T06:57:06.442Z,21.72
2018-09-01T06:58:07.017Z,21.83
2018-09-01T06:59:07.587Z,21.91
2018-09-01T07:00:08.147Z,21.85
2018-09-01T07:01:08.725Z,21.95
2018-09-01T07:02:09.290Z,21.92
2018-09-01T07:03:09.859Z,21.85
2018-09-01T07:04:10.427Z,21.75
2018-09-01T07:05:10.996Z,21.70
2018-09-01T07:06:11.564Z,21.85
2018-09-01T07:07:12.140Z,21.98
2018-09-01T07:08:12.707Z,22.24
2018-09-01T07:09:13.278Z,22.63
2018-09-01T07:10:13.845Z,22.87
2018-09-01T07:11:14.408Z,23.20
2018-09-01T07:12:14.971Z,23.28
2018-09-01T07:13:15.542Z,23.15
2018-09-01T07:14:16.114Z,23.18
2018-09-01T07:15:16.683Z,23.34
2018-09-01T07:16:17.263Z,23.18
2018-09-01T07:17:17.828Z,23.20
2018-09-01T07:18:18.391Z,23.13
2018-09-01T07:19:18.961Z,23.16
2018-09-01T07:20:19.535Z,23.21
2018-09-01T07:21:20.098Z,23.13
2018-09-01T07:22:20.671Z,23.54
2018-09-01T07:23:21.249Z,23.62
2018-09-01T07:24:21.822Z,23.83
2018-09-01T07:25:22.387Z,23.99
2018-09-01T07:26:22.960Z,24.09
2018-09-01T07:27:23.556Z,24.14
2018-09-01T07:28:24.095Z,24.41
2018-09-01T07:29:24.657Z,24.57
2018-09-01T07:30:25.314Z,24.61
2018-09-01T07:31:26.123Z,24.64
2018-09-01T07:32:26.354Z,24.64
2018-09-01T07:33:26.928Z,24.89
2018-09-01T07:34:27.501Z,25.04
2018-09-01T07:35:28.072Z,24.54
2018-09-01T07:36:28.645Z,24.38
2018-09-01T07:37:29.218Z,24.31
2018-09-01T07:38:29.786Z,24.23
2018-09-01T07:39:30.350Z,24.28
2018-09-01T07:40:30.923Z,24.42
2018-09-01T07:41:31.493Z,24.56
2018-09-01T07:42:32.072Z,24.69
2018-09-01T07:43:32.640Z,24.80
2018-09-01T07:44:33.211Z,24.83
2018-09-01T07:45:33.773Z,24.54
2018-09-01T07:46:34.345Z,24.43
2018-09-01T07:47:34.910Z,24.23
2018-09-01T07:48:35.483Z,24.23
2018-09-01T07:49:36.059Z,24.57
2018-09-01T07:50:36.637Z,24.86
2018-09-01T07:51:37.205Z,25.07
2018-09-01T07:52:37.771Z,25.04
2018-09-01T07:53:38.344Z,25.28
2018-09-01T07:54:38.989Z,25.32
2018-09-01T07:55:39.485Z,25.20
2018-09-01T07:56:40.057Z,25.38
2018-09-01T07:57:40.627Z,25.38
2018-09-01T07:58:41.198Z,25.47
2018-09-01T07:59:41.775Z,25.61
2018-09-01T08:00:42.343Z,25.91
2018-09-01T08:01:42.915Z,25.88
2018-09-01T08:02:43.488Z,25.63
2018-09-01T08:03:44.059Z,25.51
2018-09-01T08:04:44.635Z,25.61
2018-09-01T08:05:45.227Z,25.61
2018-09-01T08:06:45.782Z,25.44
2018-09-01T08:07:46.355Z,25.43
2018-09-01T08:08:46.932Z,25.58
2018-09-01T08:09:47.500Z,25.88
2018-09-01T08:10:48.080Z,25.87
2018-09-01T08:11:48.656Z,26.06
2018-09-01T08:12:49.232Z,26.25
2018-09-01T08:13:49.856Z,26.47
2018-09-01T08:14:50.386Z,26.59
2018-09-01T08:15:50.940Z,26.61
2018-09-01T08:16:51.513Z,26.55
2018-09-01T08:17:52.090Z,26.50
2018-09-01T08:18:52.660Z,26.47
2018-09-01T08:19:53.224Z,26.29
2018-09-01T08:20:53.804Z,26.18
2018-09-01T08:21:54.364Z,26.25
2018-09-01T08:22:54.936Z,26.18
2018-09-01T08:23:55.517Z,26.34
2018-09-01T08:24:56.086Z,26.56
2018-09-01T08:25:56.701Z,26.74
2018-09-01T08:26:57.235Z,26.95
2018-09-01T08:27:57.807Z,26.74
2018-09-01T08:28:58.377Z,26.56
2018-09-01T08:29:58.952Z,26.69
2018-09-01T08:30:59.524Z,26.73
2018-09-01T08:32:00.099Z,26.76
2018-09-01T08:33:00.671Z,27.00
2018-09-01T08:34:01.327Z,26.68
2018-09-01T08:35:01.815Z,26.74
2018-09-01T08:36:02.388Z,26.77
2018-09-01T08:37:02.960Z,27.02
2018-09-01T08:38:03.530Z,26.69
2018-09-01T08:39:04.101Z,26.37
2018-09-01T08:40:04.732Z,26.25
2018-09-01T08:41:05.258Z,26.12
2018-09-01T08:42:05.834Z,26.24
2018-09-01T08:43:06.407Z,26.12
2018-09-01T08:44:06.978Z,26.12
2018-09-01T08:45:07.545Z,26.43
2018-09-01T08:46:08.137Z,26.54
2018-09-01T08:47:08.721Z,26.65
2018-09-01T08:48:09.283Z,26.44
2018-09-01T08:49:09.851Z,26.10
2018-09-01T08:50:10.418Z,26.02
2018-09-01T08:51:10.990Z,25.99
2018-09-01T08:52:11.564Z,26.10
2018-09-01T08:53:12.130Z,26.26
2018-09-01T08:54:12.698Z,26.31
2018-09-01T08:55:13.260Z,26.76
2018-09-01T08:56:13.830Z,26.85
2018-09-01T08:57:14.394Z,26.93
2018-09-01T08:58:14.977Z,26.74
2018-09-01T08:59:15.549Z,26.83
2018-09-01T09:00:16.119Z,26.84
2018-09-01T09:01:16.691Z,26.68
2018-09-01T09:02:17.265Z,26.47
2018-09-01T09:03:17.836Z,26.03
2018-09-01T09:04:18.411Z,26.44
2018-09-01T09:05:18.974Z,26.68
2018-09-01T09:06:19.547Z,26.71
2018-09-01T09:07:20.120Z,26.51
2018-09-01T09:08:20.692Z,26.50
2018-09-01T09:09:21.265Z,26.54
2018-09-01T09:10:21.840Z,26.76
2018-09-01T09:11:22.416Z,26.78
2018-09-01T09:12:22.988Z,25.76
2018-09-01T09:13:23.563Z,25.72
2018-09-01T09:14:24.137Z,25.91
2018-09-01T09:15:24.720Z,25.78
2018-09-01T09:16:25.292Z,25.61
2018-09-01T09:17:25.886Z,25.53
2018-09-01T09:18:26.488Z,25.62
2018-09-01T09:19:27.012Z,25.24
2018-09-01T09:20:27.585Z,25.33
2018-09-01T09:21:28.486Z,24.94
2018-09-01T09:22:28.731Z,24.88
2018-09-01T09:23:29.296Z,25.07
2018-09-01T09:24:29.869Z,25.53
2018-09-01T09:25:30.442Z,25.78
2018-09-01T09:26:31.009Z,25.50
2018-09-01T09:27:31.584Z,24.96
2018-09-01T09:28:32.145Z,24.39
2018-09-01T09:29:32.716Z,24.20
2018-09-01T09:30:33.289Z,24.13
2018-09-01T09:31:33.850Z,24.51
2018-09-01T09:32:34.425Z,24.84
2018-09-01T09:33:35.001Z,24.69
2018-09-01T09:34:35.586Z,24.54
2018-09-01T09:35:36.135Z,24.54
2018-09-01T09:36:36.706Z,24.66
2018-09-01T09:37:37.277Z,24.77
2018-09-01T09:38:37.851Z,24.96
2018-09-01T09:39:38.421Z,25.07
2018-09-01T09:40:38.997Z,25.57
2018-09-01T09:41:39.563Z,25.57
2018-09-01T09:42:40.136Z,25.47
2018-09-01T09:43:40.707Z,25.20
2018-09-01T09:44:41.276Z,25.20
2018-09-01T09:45:41.845Z,25.63
2018-09-01T09:46:42.416Z,25.99
2018-09-01T09:47:42.989Z,26.02
2018-09-01T09:48:43.558Z,26.03
2018-09-01T09:49:44.128Z,25.80
2018-09-01T09:50:44.703Z,25.44
2018-09-01T09:51:45.269Z,24.99
2018-09-01T09:52:45.837Z,24.45
2018-09-01T09:53:46.406Z,24.31
2018-09-01T09:54:46.979Z,24.28
2018-09-01T09:55:47.549Z,24.27
2018-09-01T09:56:48.121Z,24.17
2018-09-01T09:57:48.688Z,24.58
2018-09-01T09:58:49.257Z,25.10
2018-09-01T09:59:49.827Z,25.02
2018-09-01T10:00:50.395Z,25.25
2018-09-01T10:01:50.959Z,25.58
2018-09-01T10:02:51.527Z,25.68
2018-09-01T10:03:52.104Z,25.73
2018-09-01T10:04:52.672Z,25.87
2018-09-01T10:05:53.243Z,25.87
2018-09-01T10:06:53.819Z,25.87
2018-09-01T10:07:54.387Z,25.83
2018-09-01T10:08:54.958Z,25.86
2018-09-01T10:09:55.533Z,26.00
2018-09-01T10:10:56.168Z,26.22
2018-09-01T10:11:56.684Z,26.39
2018-09-01T10:12:57.257Z,26.03
2018-09-01T10:13:57.832Z,25.99
2018-09-01T10:14:58.402Z,25.61
2018-09-01T10:15:59.064Z,25.53
2018-09-01T10:16:59.537Z,25.09
2018-09-01T10:18:00.104Z,25.31
2018-09-01T10:19:00.676Z,25.47
2018-09-01T10:20:01.319Z,25.58
2018-09-01T10:21:01.815Z,25.26
2018-09-01T10:22:02.393Z,25.26
2018-09-01T10:23:02.966Z,25.51
2018-09-01T10:24:03.537Z,25.65
2018-09-01T10:25:04.111Z,25.78
2018-09-01T10:26:04.680Z,25.68
2018-09-01T10:27:05.328Z,25.88
2018-09-01T10:28:05.818Z,26.26
2018-09-01T10:29:06.400Z,26.55
2018-09-01T10:30:06.958Z,26.63
2018-09-01T10:31:07.532Z,26.13
2018-09-01T10:32:08.103Z,26.03
2018-09-01T10:33:08.690Z,25.72
2018-09-01T10:34:09.244Z,25.24
2018-09-01T10:35:09.816Z,24.98
2018-09-01T10:36:10.383Z,25.01
2018-09-01T10:37:10.954Z,25.33
2018-09-01T10:38:11.526Z,25.88
2018-09-01T10:39:12.096Z,26.26
2018-09-01T10:40:12.667Z,26.37
2018-09-01T10:41:13.253Z,26.13
2018-09-01T10:42:13.800Z,26.16
2018-09-01T10:43:14.374Z,26.63
2018-09-01T10:44:14.988Z,26.93
2018-09-01T10:45:15.516Z,26.84
2018-09-01T10:46:16.085Z,26.32
2018-09-01T10:47:16.657Z,25.71
2018-09-01T10:48:17.228Z,25.61
2018-09-01T10:49:17.806Z,25.46
2018-09-01T10:50:18.368Z,25.51
2018-09-01T10:51:18.943Z,25.29
2018-09-01T10:52:19.512Z,25.07
2018-09-01T10:53:20.074Z,25.32
2018-09-01T10:54:20.636Z,25.51
2018-09-01T10:55:21.210Z,25.78
2018-09-01T10:56:21.776Z,25.72
2018-09-01T10:57:22.351Z,25.28
2018-09-01T10:58:22.911Z,24.95
2018-09-01T10:59:23.521Z,24.57
2018-09-01T11:00:24.034Z,24.24
2018-09-01T11:01:24.605Z,23.99
2018-09-01T11:02:25.171Z,23.66
2018-09-01T11:03:25.742Z,23.40
2018-09-01T11:04:26.303Z,23.79
2018-09-01T11:05:26.894Z,24.17
2018-09-01T11:06:27.440Z,24.57
2018-09-01T11:07:28.006Z,25.01
2018-09-01T11:08:28.574Z,25.47
2018-09-01T11:09:29.135Z,25.68
2018-09-01T11:10:29.709Z,25.95
2018-09-01T11:11:30.277Z,26.28
2018-09-01T11:12:30.852Z,26.31
2018-09-01T11:13:31.423Z,26.50
2018-09-01T11:14:31.993Z,26.95
2018-09-01T11:15:32.565Z,27.54
2018-09-01T11:16:33.149Z,27.67
2018-09-01T11:17:33.706Z,27.47
2018-09-01T11:18:34.276Z,27.59
2018-09-01T11:19:34.848Z,27.29
2018-09-01T11:20:35.438Z,27.05
2018-09-01T11:21:35.991Z,27.18
2018-09-01T11:22:36.551Z,26.93
2018-09-01T11:23:37.135Z,26.77
2018-09-01T11:24:37.703Z,27.08
2018-09-01T11:25:38.274Z,27.39
2018-09-01T11:26:38.845Z,27.06
2018-09-01T11:27:39.444Z,27.17
2018-09-01T11:28:39.987Z,27.20
2018-09-01T11:29:40.558Z,27.13
2018-09-01T11:30:41.129Z,27.32
2018-09-01T11:31:41.704Z,27.24
2018-09-01T11:32:42.295Z,27.30
2018-09-01T11:33:42.852Z,26.96
2018-09-01T11:34:43.427Z,27.02
2018-09-01T11:35:43.996Z,27.54
2018-09-01T11:36:44.575Z,28.10
2018-09-01T11:37:45.137Z,28.23
2018-09-01T11:38:45.710Z,28.27
2018-09-01T11:39:46.280Z,27.96
2018-09-01T11:40:46.849Z,28.13
2018-09-01T11:41:47.428Z,28.66
2018-09-01T11:42:48.127Z,29.16
2018-09-01T11:43:48.584Z,29.38
2018-09-01T11:44:49.128Z,29.37
2018-09-01T11:45:49.695Z,29.23
2018-09-01T11:46:50.275Z,29.47
2018-09-01T11:47:50.850Z,29.76
2018-09-01T11:48:51.432Z,30.13
2018-09-01T11:49:52.010Z,30.24
2018-09-01T11:50:52.571Z,30.27
2018-09-01T11:51:53.144Z,30.40
2018-09-01T11:52:53.717Z,30.65
2018-09-01T11:53:54.315Z,30.35
2018-09-01T11:54:54.859Z,29.76
2018-09-01T11:55:55.424Z,28.67
2018-09-01T11:56:55.988Z,28.14
2018-09-01T11:57:56.559Z,27.03
2018-09-01T11:58:57.148Z,26.74
2018-09-01T11:59:57.693Z,26.63
2018-09-01T12:00:58.262Z,26.63
2018-09-01T12:01:58.836Z,26.87
2018-09-01T12:02:59.413Z,27.50
2018-09-01T12:04:00.056Z,27.98
2018-09-01T12:05:00.565Z,28.22
2018-09-01T12:06:01.145Z,28.00
2018-09-01T12:07:01.713Z,28.18
2018-09-01T12:08:02.285Z,27.96
2018-09-01T12:09:02.962Z,27.71
2018-09-01T12:10:03.424Z,28.04
2018-09-01T12:11:03.996Z,28.23
2018-09-01T12:12:04.568Z,27.85
2018-09-01T12:13:05.143Z,27.96
2018-09-01T12:14:05.712Z,28.40
2018-09-01T12:15:06.287Z,28.92
2018-09-01T12:16:06.858Z,29.35
2018-09-01T12:17:07.425Z,29.57
2018-09-01T12:18:08.024Z,29.38
2018-09-01T12:19:08.572Z,29.15
2018-09-01T12:20:09.134Z,28.77
2018-09-01T12:21:09.703Z,28.17
2018-09-01T12:22:10.268Z,27.42
2018-09-01T12:23:10.828Z,27.28
2018-09-01T12:24:11.401Z,27.74
2018-09-01T12:25:11.966Z,28.29
2018-09-01T12:26:12.536Z,28.62
2018-09-01T12:27:13.111Z,29.30
2018-09-01T12:28:13.715Z,29.78
2018-09-01T12:29:14.251Z,30.03
2018-09-01T12:30:14.819Z,30.09
2018-09-01T12:31:15.387Z,30.35
2018-09-01T12:32:15.954Z,30.57
2018-09-01T12:33:16.528Z,30.65
2018-09-01T12:34:17.100Z,30.64
2018-09-01T12:35:17.675Z,30.75
2018-09-01T12:36:18.259Z,30.93
2018-09-01T12:37:18.809Z,30.71
2018-09-01T12:38:19.381Z,30.40
2018-09-01T12:39:19.958Z,30.16
2018-09-01T12:40:20.528Z,29.87
2018-09-01T12:41:21.105Z,29.47
2018-09-01T12:42:21.672Z,29.13
2018-09-01T12:43:22.242Z,28.78
2018-09-01T12:44:22.820Z,28.97
2018-09-01T12:45:23.392Z,29.16
2018-09-01T12:46:23.963Z,29.23
2018-09-01T12:47:24.534Z,28.75
2018-09-01T12:48:25.105Z,28.54
2018-09-01T12:49:25.671Z,28.41
2018-09-01T12:50:26.241Z,28.63
2018-09-01T12:51:26.812Z,29.19
2018-09-01T12:52:27.380Z,29.45
2018-09-01T12:53:27.952Z,29.71
2018-09-01T12:54:28.522Z,30.18
2018-09-01T12:55:29.091Z,30.00
2018-09-01T12:56:29.662Z,30.05
2018-09-01T12:57:30.234Z,30.15
2018-09-01T12:58:30.805Z,30.38
2018-09-01T12:59:31.376Z,30.94
2018-09-01T13:00:31.951Z,30.90
2018-09-01T13:01:32.511Z,30.94
2018-09-01T13:02:33.082Z,30.86
2018-09-01T13:03:33.656Z,30.93
2018-09-01T13:04:34.222Z,30.56